CheckWX is a tool to help pilots better visualize weather data.  It is not intended as a substitute for an official pre-flight weather briefing.

00:28:06 UTC

KCLE METAR
Cleveland-Hopkins International Airport
Cleveland, Ohio, USA
Current

37 mins ago

KCLE 162351Z 35005KT 10SM CLR 22/18 A3009 RMK AO2 SLP186 T02170183 10272 20217 51005 $
Observed
Sep-16 @ 23:51 UTC
Wind
  • 350° at 5 KTS
Visibility
10 SM
Flight Rules
VFR
Cloud Levels
  • Clear skies
Temperature
22°C / 72°F
Dewpoint
18°C / 64°F
Humidity
78%
Altimeter
30.09" Hg
Pressure
1018.92 hPa
Previous

2 hours ago

KCLE 162251Z 01006KT 10SM CLR 23/18 A3009 RMK AO2 SLP184 T02330183 $
Observed
Sep-16 @ 22:51 UTC
Wind
  • 010° at 6 KTS
Visibility
10 SM
Flight Rules
VFR
Cloud Levels
  • Clear skies
Temperature
23°C / 73°F
Dewpoint
18°C / 64°F
Humidity
74%
Altimeter
30.09" Hg
Pressure
1018.92 hPa
Previous

3 hours ago

KCLE 162151Z 01009KT 10SM FEW040 24/18 A3009 RMK AO2 SLP183 T02440183 $
Observed
Sep-16 @ 21:51 UTC
Wind
  • 010° at 9 KTS
Visibility
10 SM
Flight Rules
VFR
Cloud Levels
  • Few at 4,000' AGL
Temperature
24°C / 75°F
Dewpoint
18°C / 64°F
Humidity
69%
Altimeter
30.09" Hg
Pressure
1018.92 hPa